createdAt,value
2019-01-20T00:02:12.335Z,6.70
2019-01-20T00:04:41.619Z,6.30
2019-01-20T00:07:10.789Z,5.73
2019-01-20T00:09:42.782Z,5.60
2019-01-20T00:12:22.069Z,4.97
2019-01-20T00:14:53.062Z,6.58
2019-01-20T00:17:27.321Z,6.50
2019-01-20T00:19:59.882Z,6.40
2019-01-20T00:22:29.140Z,5.57
2019-01-20T00:24:58.381Z,6.23
2019-01-20T00:27:27.931Z,6.77
2019-01-20T00:29:57.099Z,6.58
2019-01-20T00:32:26.271Z,5.97
2019-01-20T00:34:55.510Z,5.67
2019-01-20T00:37:24.698Z,6.77
2019-01-20T00:39:55.516Z,6.30
2019-01-20T00:42:27.020Z,6.47
2019-01-20T00:45:02.927Z,6.77
2019-01-20T00:47:36.838Z,7.00
2019-01-20T00:50:07.198Z,6.30
2019-01-20T00:52:36.772Z,6.55
2019-01-20T00:55:08.762Z,5.47
2019-01-20T00:57:38.721Z,6.30
2019-01-20T01:00:16.025Z,6.20
2019-01-20T01:02:45.339Z,6.33
2019-01-20T01:05:15.068Z,7.00
2019-01-20T01:07:46.179Z,6.70
2019-01-20T01:10:15.636Z,6.00
2019-01-20T01:12:46.281Z,6.10
2019-01-20T01:15:16.854Z,6.90
2019-01-20T01:17:46.086Z,7.37
2019-01-20T01:20:17.509Z,6.70
2019-01-20T01:22:47.111Z,7.57
2019-01-20T01:25:16.966Z,7.12
2019-01-20T01:27:46.981Z,6.50
2019-01-20T01:30:18.537Z,6.40
2019-01-20T01:32:47.747Z,6.73
2019-01-20T01:35:17.240Z,5.93
2019-01-20T01:37:46.517Z,7.00
2019-01-20T01:40:16.729Z,6.30
2019-01-20T01:42:46.258Z,7.70
2019-01-20T01:45:18.377Z,6.57
2019-01-20T01:47:48.074Z,7.10
2019-01-20T01:50:18.857Z,7.20
2019-01-20T01:52:49.328Z,7.30
2019-01-20T01:55:21.049Z,6.67
2019-01-20T01:57:50.259Z,6.85
2019-01-20T02:00:30.069Z,7.15
2019-01-20T02:03:00.077Z,7.13
2019-01-20T02:05:30.324Z,7.72
2019-01-20T02:08:00.786Z,7.20
2019-01-20T02:10:32.074Z,7.33
2019-01-20T02:13:01.658Z,6.15
2019-01-20T02:15:30.896Z,7.23
2019-01-20T02:18:00.270Z,8.05
2019-01-20T02:20:29.823Z,7.07
2019-01-20T02:22:59.750Z,8.68
2019-01-20T02:25:29.840Z,8.10
2019-01-20T02:27:59.460Z,8.13
2019-01-20T02:30:30.277Z,7.35
2019-01-20T02:32:59.514Z,7.47
2019-01-20T02:35:30.090Z,6.90
2019-01-20T02:38:00.461Z,8.13
2019-01-20T02:40:29.684Z,7.63
2019-01-20T02:43:01.143Z,7.05
2019-01-20T02:45:30.721Z,8.03
2019-01-20T02:48:00.190Z,7.30
2019-01-20T02:50:29.703Z,8.13
2019-01-20T02:52:58.977Z,7.87
2019-01-20T02:55:28.237Z,7.50
2019-01-20T02:57:57.710Z,7.90
2019-01-20T03:00:26.935Z,7.77
2019-01-20T03:03:01.266Z,8.45
2019-01-20T03:05:30.506Z,8.70
2019-01-20T03:07:59.676Z,8.90
2019-01-20T03:10:28.912Z,8.03
2019-01-20T03:12:58.451Z,8.13
2019-01-20T03:15:29.377Z,7.87
2019-01-20T03:17:58.606Z,8.50
2019-01-20T03:20:27.820Z,7.40
2019-01-20T03:22:57.084Z,8.48
2019-01-20T03:25:26.373Z,7.87
2019-01-20T03:27:55.488Z,7.87
2019-01-20T03:30:24.880Z,8.33
2019-01-20T03:32:54.384Z,8.00
2019-01-20T03:35:25.177Z,8.30
2019-01-20T03:37:54.711Z,7.50
2019-01-20T03:40:23.921Z,8.00
2019-01-20T03:42:53.175Z,8.30
2019-01-20T03:45:22.434Z,9.20
2019-01-20T03:47:51.862Z,8.50
2019-01-20T03:50:21.051Z,9.07
2019-01-20T03:52:51.019Z,8.30
2019-01-20T03:55:22.569Z,7.67
2019-01-20T03:57:52.113Z,8.93
2019-01-20T04:00:24.996Z,8.07
2019-01-20T04:03:04.236Z,8.73
2019-01-20T04:05:33.976Z,9.00
2019-01-20T04:08:04.977Z,8.70
2019-01-20T04:10:34.529Z,8.38
2019-01-20T04:13:04.003Z,9.20
2019-01-20T04:15:34.541Z,9.77
2019-01-20T04:18:05.157Z,8.27
2019-01-20T04:20:35.535Z,8.83
2019-01-20T04:23:07.058Z,8.70
2019-01-20T04:25:37.190Z,8.50
2019-01-20T04:28:33.827Z,8.00
2019-01-20T04:31:12.205Z,9.40
2019-01-20T04:33:47.359Z,9.33
2019-01-20T04:36:26.284Z,8.83
2019-01-20T04:39:02.932Z,10.47
2019-01-20T04:41:40.083Z,9.53
2019-01-20T04:44:20.084Z,8.73
2019-01-20T04:46:49.509Z,8.03
2019-01-20T04:49:19.519Z,9.07
2019-01-20T04:51:48.968Z,9.30
2019-01-20T04:54:19.684Z,8.88
2019-01-20T04:56:49.123Z,8.20
2019-01-20T04:59:18.911Z,8.35
2019-01-20T05:01:48.772Z,8.13
2019-01-20T05:04:18.592Z,9.45
2019-01-20T05:06:47.938Z,9.38
2019-01-20T05:09:18.000Z,9.08
2019-01-20T05:11:48.326Z,9.70
2019-01-20T05:14:17.743Z,9.43
2019-01-20T05:16:47.713Z,9.20
2019-01-20T05:19:17.127Z,9.48
2019-01-20T05:21:46.611Z,9.45
2019-01-20T05:24:16.095Z,9.33
2019-01-20T05:26:45.573Z,9.48
2019-01-20T05:29:15.089Z,9.30
2019-01-20T05:31:44.503Z,9.27
2019-01-20T05:34:13.973Z,9.20
2019-01-20T05:36:43.718Z,9.58
2019-01-20T05:39:13.546Z,9.88
2019-01-20T05:41:42.999Z,9.57
2019-01-20T05:44:12.867Z,11.00
2019-01-20T05:46:42.303Z,8.55
2019-01-20T05:49:11.797Z,9.70
2019-01-20T05:51:41.650Z,10.83
2019-01-20T05:54:11.184Z,10.53
2019-01-20T05:56:40.995Z,10.03
2019-01-20T05:59:10.422Z,9.58
2019-01-20T06:01:40.166Z,9.67
2019-01-20T06:04:09.555Z,9.30
2019-01-20T06:06:38.850Z,9.13
2019-01-20T06:09:08.855Z,10.20
2019-01-20T06:11:44.749Z,9.23
2019-01-20T06:14:15.222Z,10.40
2019-01-20T06:16:44.439Z,10.07
2019-01-20T06:19:15.649Z,10.50
2019-01-20T06:21:45.392Z,10.10
2019-01-20T06:24:17.380Z,9.80
2019-01-20T06:26:48.615Z,9.10
2019-01-20T06:29:21.707Z,9.77
2019-01-20T06:31:52.787Z,8.75
2019-01-20T06:34:31.567Z,10.43
2019-01-20T06:37:02.472Z,9.60
2019-01-20T06:39:34.907Z,8.75
2019-01-20T06:42:18.032Z,8.90
2019-01-20T06:44:47.173Z,9.80
2019-01-20T06:47:17.003Z,9.17
2019-01-20T06:49:46.456Z,12.63
2019-01-20T06:52:16.054Z,11.85
2019-01-20T06:54:45.284Z,13.40
2019-01-20T06:57:14.444Z,14.07
2019-01-20T06:59:46.580Z,15.83
2019-01-20T07:02:15.995Z,16.17
2019-01-20T07:04:45.771Z,15.38
2019-01-20T07:07:15.464Z,15.10
2019-01-20T07:09:44.651Z,15.70
2019-01-20T07:12:13.812Z,12.58
2019-01-20T07:14:43.246Z,12.77
2019-01-20T07:17:12.460Z,12.17
2019-01-20T07:19:41.996Z,11.90
2019-01-20T07:22:11.193Z,10.72
2019-01-20T07:24:40.384Z,10.30
2019-01-20T07:27:09.845Z,10.80
2019-01-20T07:29:40.459Z,10.75
2019-01-20T07:32:09.700Z,11.33
2019-01-20T07:34:38.842Z,11.35
2019-01-20T07:37:08.052Z,12.43
2019-01-20T07:39:37.397Z,12.17
2019-01-20T07:42:06.932Z,10.67
2019-01-20T07:44:37.025Z,12.03
2019-01-20T07:47:07.439Z,11.20
2019-01-20T07:49:36.731Z,10.93
2019-01-20T07:52:05.968Z,11.20
2019-01-20T07:54:35.535Z,10.93
2019-01-20T07:57:06.856Z,12.30
2019-01-20T07:59:36.303Z,12.70
2019-01-20T08:02:05.579Z,11.70
2019-01-20T08:04:34.831Z,11.23
2019-01-20T08:07:04.590Z,11.93
2019-01-20T08:09:34.340Z,9.50
2019-01-20T08:12:06.920Z,10.78
2019-01-20T08:14:36.179Z,10.80
2019-01-20T08:17:06.781Z,9.77
2019-01-20T08:19:36.364Z,12.53
2019-01-20T08:22:06.357Z,9.53
2019-01-20T08:24:36.257Z,11.35
2019-01-20T08:27:05.617Z,10.67
2019-01-20T08:29:35.533Z,11.70
2019-01-20T08:32:04.831Z,10.88
2019-01-20T08:34:35.327Z,13.38
2019-01-20T08:37:04.634Z,13.83
2019-01-20T08:39:34.135Z,12.18
2019-01-20T08:42:05.301Z,11.28
2019-01-20T08:44:38.141Z,13.22
2019-01-20T08:47:20.427Z,12.43
2019-01-20T08:49:49.684Z,12.78
2019-01-20T08:52:19.394Z,12.23
2019-01-20T08:54:48.759Z,13.10
2019-01-20T08:57:18.264Z,12.03
2019-01-20T08:59:47.567Z,11.50
2019-01-20T09:02:18.342Z,11.83
2019-01-20T09:04:47.523Z,14.33
2019-01-20T09:07:16.756Z,13.90
2019-01-20T09:09:47.539Z,12.82
2019-01-20T09:12:17.163Z,14.00
2019-01-20T09:14:46.663Z,13.60
2019-01-20T09:17:19.744Z,13.58
2019-01-20T09:20:03.483Z,13.15
2019-01-20T09:22:32.763Z,14.95
2019-01-20T09:25:01.960Z,15.30
2019-01-20T09:27:31.248Z,15.05
2019-01-20T09:30:00.555Z,14.20
2019-01-20T09:32:36.120Z,14.60
2019-01-20T09:35:08.193Z,14.43
2019-01-20T09:37:38.837Z,13.07
2019-01-20T09:40:09.486Z,13.83
2019-01-20T09:42:53.543Z,14.80
2019-01-20T09:45:44.316Z,15.00
2019-01-20T09:48:16.318Z,15.78
2019-01-20T09:50:59.414Z,15.37
2019-01-20T09:53:36.155Z,15.27
2019-01-20T09:56:08.137Z,16.80
2019-01-20T09:58:38.607Z,15.48
2019-01-20T10:01:20.071Z,15.83
2019-01-20T10:03:49.691Z,15.20
2019-01-20T10:06:30.465Z,15.30
2019-01-20T10:09:08.811Z,14.70
2019-01-20T10:11:39.332Z,17.17
2019-01-20T10:14:10.468Z,17.20
2019-01-20T10:16:42.774Z,15.83
2019-01-20T10:19:21.076Z,16.37
2019-01-20T10:21:57.519Z,17.73
2019-01-20T10:24:39.189Z,15.70
2019-01-20T10:27:09.268Z,15.08
2019-01-20T10:29:41.404Z,16.70
2019-01-20T10:32:12.027Z,17.10
2019-01-20T10:34:44.387Z,16.50
2019-01-20T10:37:20.304Z,17.83
2019-01-20T10:39:57.507Z,16.73
2019-01-20T10:42:37.551Z,15.40
2019-01-20T10:45:18.026Z,16.90
2019-01-20T10:47:50.764Z,17.03
2019-01-20T10:50:32.869Z,16.03
2019-01-20T10:53:12.461Z,16.67
2019-01-20T10:55:46.898Z,17.13
2019-01-20T10:58:26.034Z,19.83
2019-01-20T11:00:59.823Z,17.00
2019-01-20T11:03:34.221Z,16.55
2019-01-20T11:06:16.028Z,19.03
2019-01-20T11:08:51.212Z,16.77
2019-01-20T11:11:26.800Z,16.53
2019-01-20T11:13:59.356Z,16.87
2019-01-20T11:16:48.109Z,15.33
2019-01-20T11:19:24.814Z,17.00
2019-01-20T11:22:16.295Z,16.47
2019-01-20T11:24:49.386Z,15.23
2019-01-20T11:27:22.032Z,14.60
2019-01-20T11:29:51.552Z,15.80
2019-01-20T11:32:22.759Z,15.68
2019-01-20T11:34:58.822Z,15.58
2019-01-20T11:37:34.155Z,16.73
2019-01-20T11:40:13.536Z,15.75
2019-01-20T11:42:43.468Z,15.60
2019-01-20T11:45:18.733Z,15.78
2019-01-20T11:47:47.999Z,17.05
2019-01-20T11:50:18.233Z,17.47
2019-01-20T11:52:49.545Z,15.13
2019-01-20T11:55:23.713Z,15.32
2019-01-20T11:57:55.498Z,15.23
2019-01-20T12:00:30.211Z,18.17
2019-01-20T12:03:05.238Z,16.15
2019-01-20T12:05:36.503Z,19.23
2019-01-20T12:08:12.479Z,17.93
2019-01-20T12:10:50.770Z,16.02
2019-01-20T12:13:29.105Z,15.93
2019-01-20T12:15:58.358Z,14.90
2019-01-20T12:18:30.043Z,14.67
2019-01-20T12:20:59.246Z,14.57
2019-01-20T12:23:28.532Z,15.53
2019-01-20T12:25:58.099Z,15.15
2019-01-20T12:28:27.342Z,15.73
2019-01-20T12:30:56.632Z,14.47
2019-01-20T12:33:26.944Z,15.90
2019-01-20T12:35:56.776Z,15.50
2019-01-20T12:38:33.644Z,16.90
2019-01-20T12:41:02.887Z,16.35
2019-01-20T12:43:36.886Z,15.53
2019-01-20T12:46:08.552Z,15.07
2019-01-20T12:48:41.145Z,14.03
2019-01-20T12:51:12.565Z,15.60
2019-01-20T12:53:41.768Z,14.77
2019-01-20T12:56:10.936Z,14.95
2019-01-20T12:58:41.409Z,15.07
2019-01-20T13:01:10.904Z,14.20
2019-01-20T13:03:40.278Z,15.60
2019-01-20T13:06:09.527Z,15.90
2019-01-20T13:08:39.037Z,16.13
2019-01-20T13:11:08.806Z,16.20
2019-01-20T13:13:38.352Z,15.13
2019-01-20T13:16:07.537Z,15.53
2019-01-20T13:18:36.175Z,16.67
2019-01-20T13:21:05.440Z,15.97
2019-01-20T13:23:35.381Z,15.10
2019-01-20T13:26:07.304Z,15.48
2019-01-20T13:28:36.467Z,14.90
2019-01-20T13:31:08.845Z,15.80
2019-01-20T13:33:38.413Z,16.10
2019-01-20T13:36:07.787Z,15.80
2019-01-20T13:38:37.092Z,16.27
2019-01-20T13:41:30.668Z,18.10
2019-01-20T13:44:00.382Z,16.05
2019-01-20T13:46:29.787Z,15.43
2019-01-20T13:48:59.101Z,13.80
2019-01-20T13:51:29.188Z,13.88
2019-01-20T13:53:58.464Z,14.90
2019-01-20T13:56:28.127Z,14.15
2019-01-20T13:59:00.283Z,14.40
2019-01-20T14:01:29.479Z,15.47
2019-01-20T14:03:58.739Z,15.27
2019-01-20T14:06:30.140Z,14.80
2019-01-20T14:09:03.662Z,14.43
2019-01-20T14:11:37.747Z,13.60
2019-01-20T14:14:11.954Z,15.60
2019-01-20T14:16:42.825Z,13.23
2019-01-20T14:19:14.189Z,15.10
2019-01-20T14:21:47.172Z,14.38
2019-01-20T14:24:17.796Z,15.55
2019-01-20T14:26:47.039Z,17.20
2019-01-20T14:29:16.299Z,17.20
2019-01-20T14:31:47.199Z,17.77
2019-01-20T14:34:16.477Z,17.27
2019-01-20T14:36:45.692Z,17.20
2019-01-20T14:39:55.174Z,18.23
2019-01-20T14:53:01.329Z,16.80
2019-01-20T14:55:37.667Z,18.40
2019-01-20T14:58:06.921Z,18.87
2019-01-20T15:00:38.120Z,17.90
2019-01-20T15:03:07.926Z,17.70
2019-01-20T15:05:38.211Z,18.03
2019-01-20T15:08:08.459Z,17.37
2019-01-20T15:10:37.751Z,19.03
2019-01-20T15:13:07.065Z,17.65
2019-01-20T15:15:42.255Z,19.40
2019-01-20T15:18:12.572Z,16.97
2019-01-20T15:20:42.059Z,17.10
2019-01-20T15:23:11.363Z,16.80
2019-01-20T15:25:40.898Z,18.00
2019-01-20T15:28:13.514Z,18.80
2019-01-20T15:30:42.698Z,17.47
2019-01-20T15:33:11.861Z,17.87
2019-01-20T15:35:41.062Z,17.42
2019-01-20T15:38:10.396Z,17.98
2019-01-20T15:40:40.209Z,18.93
2019-01-20T15:43:09.394Z,19.17
2019-01-20T15:45:38.613Z,18.32
2019-01-20T15:48:10.884Z,23.00
2019-01-20T15:50:45.093Z,26.90
2019-01-20T15:53:16.456Z,19.87
2019-01-20T15:55:45.674Z,18.23
2019-01-20T15:58:15.920Z,16.25
2019-01-20T16:00:45.243Z,17.10
2019-01-20T16:03:15.757Z,18.83
2019-01-20T16:05:49.114Z,19.60
2019-01-20T16:08:23.877Z,18.43
2019-01-20T16:10:55.173Z,18.53
2019-01-20T16:13:29.371Z,18.60
2019-01-20T16:15:58.551Z,20.23
2019-01-20T16:18:27.807Z,16.93
2019-01-20T16:20:57.799Z,17.82
2019-01-20T16:23:27.173Z,18.90
2019-01-20T16:25:56.507Z,17.67
2019-01-20T16:28:26.049Z,19.40
2019-01-20T16:30:55.283Z,18.15
2019-01-20T16:33:25.291Z,19.10
2019-01-20T16:36:01.608Z,18.70
2019-01-20T16:38:41.647Z,19.67
2019-01-20T16:41:02.821Z,19.40
2019-01-20T16:43:40.635Z,19.35
2019-01-20T16:46:13.031Z,19.10
2019-01-20T16:48:44.743Z,20.97
2019-01-20T16:51:14.310Z,19.80
2019-01-20T16:53:43.546Z,20.13
2019-01-20T16:56:12.743Z,20.40
2019-01-20T16:58:41.982Z,21.17
2019-01-20T17:01:11.515Z,19.70
2019-01-20T17:03:53.806Z,19.77
2019-01-20T17:06:23.003Z,19.87
2019-01-20T17:08:52.251Z,19.40
2019-01-20T17:11:21.403Z,17.37
2019-01-20T17:13:50.931Z,20.88
2019-01-20T17:16:20.183Z,21.70
2019-01-20T17:18:49.451Z,20.32
2019-01-20T17:21:18.665Z,20.15
2019-01-20T17:23:48.236Z,19.80
2019-01-20T17:26:17.655Z,20.60
2019-01-20T17:29:03.360Z,19.75
2019-01-20T17:31:29.463Z,19.45
2019-01-20T17:33:58.707Z,20.70
2019-01-20T17:36:27.911Z,21.20
2019-01-20T17:38:57.470Z,21.50
2019-01-20T17:41:31.890Z,21.00
2019-01-20T17:44:02.500Z,21.87
2019-01-20T17:46:42.473Z,19.32
2019-01-20T17:49:11.692Z,19.53
2019-01-20T17:51:43.649Z,19.55
2019-01-20T17:54:13.699Z,18.25
2019-01-20T17:56:50.455Z,17.90
2019-01-20T17:59:19.936Z,18.30
2019-01-20T18:01:53.524Z,18.97
2019-01-20T18:04:23.042Z,16.97
2019-01-20T18:06:52.226Z,18.05
2019-01-20T18:09:21.506Z,17.23
2019-01-20T18:11:51.183Z,18.80
2019-01-20T18:14:20.450Z,16.60
2019-01-20T18:16:49.953Z,15.35
2019-01-20T18:19:26.015Z,17.40
2019-01-20T18:21:55.923Z,18.53
2019-01-20T18:24:25.244Z,17.17
2019-01-20T18:26:54.436Z,17.40
2019-01-20T18:29:24.241Z,18.10
2019-01-20T18:31:54.991Z,16.93
2019-01-20T18:34:26.427Z,17.03
2019-01-20T18:36:57.413Z,17.13
2019-01-20T18:39:27.203Z,16.87
2019-01-20T18:41:57.176Z,16.45
2019-01-20T18:44:28.177Z,16.90
2019-01-20T18:46:57.605Z,16.20
2019-01-20T18:49:26.904Z,15.45
2019-01-20T18:51:59.073Z,16.87
2019-01-20T18:54:29.987Z,18.02
2019-01-20T18:57:00.361Z,17.60
2019-01-20T18:59:30.260Z,16.50
2019-01-20T19:01:59.753Z,17.62
2019-01-20T19:04:28.966Z,16.75
2019-01-20T19:06:58.229Z,16.73
2019-01-20T19:09:32.023Z,17.40
2019-01-20T19:12:01.382Z,17.45
2019-01-20T19:14:31.223Z,18.37
2019-01-20T19:17:00.531Z,18.77
2019-01-20T19:19:29.685Z,18.30
2019-01-20T19:21:58.862Z,16.97
2019-01-20T19:24:30.194Z,17.73
2019-01-20T19:27:13.930Z,18.17
2019-01-20T19:29:43.176Z,16.70
2019-01-20T19:32:15.711Z,16.93
2019-01-20T19:34:45.027Z,16.70
2019-01-20T19:37:14.207Z,16.50
2019-01-20T19:39:50.358Z,17.67
2019-01-20T19:42:14.494Z,16.47
2019-01-20T19:44:54.867Z,17.20
2019-01-20T19:47:26.873Z,17.97
2019-01-20T19:49:56.327Z,17.13
2019-01-20T19:52:25.690Z,15.93
2019-01-20T19:54:55.388Z,17.90
2019-01-20T19:57:24.827Z,17.30
2019-01-20T19:59:53.964Z,16.67
2019-01-20T20:02:23.486Z,16.45
2019-01-20T20:04:53.915Z,18.00
2019-01-20T20:07:23.252Z,17.47
2019-01-20T20:09:52.608Z,17.80
2019-01-20T20:12:22.166Z,16.95
2019-01-20T20:14:51.760Z,16.70
2019-01-20T20:17:21.151Z,17.47
2019-01-20T20:19:52.755Z,18.23
2019-01-20T20:22:53.275Z,14.87
2019-01-20T20:26:00.796Z,16.50
2019-01-20T20:29:16.955Z,16.40
2019-01-20T20:31:46.631Z,16.23
2019-01-20T20:34:16.031Z,16.43
2019-01-20T20:36:45.295Z,15.83
2019-01-20T20:39:14.963Z,16.10
2019-01-20T20:41:44.305Z,16.25
2019-01-20T20:44:13.574Z,16.20
2019-01-20T20:46:43.704Z,15.70
2019-01-20T20:49:12.850Z,16.27
2019-01-20T20:51:44.620Z,16.50
2019-01-20T20:54:21.313Z,16.93
2019-01-20T20:56:50.632Z,16.57
2019-01-20T20:59:20.134Z,17.10
2019-01-20T21:01:49.838Z,15.88
2019-01-20T21:04:19.008Z,17.00
2019-01-20T21:06:48.222Z,16.17
2019-01-20T21:09:17.443Z,19.37
2019-01-20T21:11:46.918Z,22.80
2019-01-20T21:14:16.512Z,23.70
2019-01-20T21:16:47.024Z,23.77
2019-01-20T21:19:20.406Z,22.75
2019-01-20T21:21:51.350Z,21.20
2019-01-20T21:24:20.847Z,19.70
2019-01-20T21:26:50.436Z,18.77
2019-01-20T21:29:20.843Z,19.07
2019-01-20T21:31:51.968Z,18.30
2019-01-20T21:34:21.650Z,18.45
2019-01-20T21:36:50.999Z,18.75
2019-01-20T21:39:20.467Z,18.13
2019-01-20T21:41:51.553Z,18.10
2019-01-20T21:44:31.231Z,18.17
2019-01-20T21:47:00.455Z,20.97
2019-01-20T21:49:30.019Z,20.03
2019-01-20T21:51:59.368Z,19.30
2019-01-20T21:54:28.785Z,20.67
2019-01-20T21:56:58.080Z,19.87
2019-01-20T21:59:28.235Z,19.42
2019-01-20T22:01:57.873Z,21.35
2019-01-20T22:04:27.229Z,20.00
2019-01-20T22:06:56.479Z,20.20
2019-01-20T22:09:25.715Z,19.47
2019-01-20T22:11:55.207Z,19.50
2019-01-20T22:14:24.688Z,19.10
2019-01-20T22:16:54.314Z,17.60
2019-01-20T22:19:23.719Z,19.07
2019-01-20T22:22:01.418Z,18.75
2019-01-20T22:24:30.634Z,19.70
2019-01-20T22:26:59.835Z,18.75
2019-01-20T22:29:29.026Z,18.48
2019-01-20T22:31:58.311Z,19.27
2019-01-20T22:34:28.353Z,17.95
2019-01-20T22:36:57.802Z,17.57
2019-01-20T22:39:27.486Z,19.67
2019-01-20T22:41:57.046Z,18.73
2019-01-20T22:44:27.294Z,18.55
2019-01-20T22:47:00.348Z,18.33
2019-01-20T22:49:28.104Z,18.80
2019-01-20T22:51:57.588Z,20.45
2019-01-20T22:54:27.228Z,19.83
2019-01-20T22:56:56.347Z,19.23
2019-01-20T22:59:25.555Z,20.13
2019-01-20T23:01:54.899Z,16.50
2019-01-20T23:04:24.317Z,18.75
2019-01-20T23:06:53.597Z,20.80
2019-01-20T23:09:23.050Z,19.10
2019-01-20T23:11:52.193Z,20.55
2019-01-20T23:14:22.555Z,20.50
2019-01-20T23:16:52.305Z,21.03
2019-01-20T23:19:24.097Z,19.85
2019-01-20T23:21:54.615Z,20.32
2019-01-20T23:24:23.856Z,19.70
2019-01-20T23:26:53.892Z,19.70
2019-01-20T23:29:23.082Z,20.03
2019-01-20T23:31:52.447Z,19.95
2019-01-20T23:34:23.343Z,21.30
2019-01-20T23:36:52.747Z,19.97
2019-01-20T23:39:22.019Z,19.67
2019-01-20T23:41:51.544Z,20.82
2019-01-20T23:44:20.867Z,20.82
2019-01-20T23:46:50.167Z,21.47
2019-01-20T23:49:19.656Z,21.53
2019-01-20T23:51:49.384Z,20.00
2019-01-20T23:54:19.013Z,20.20
2019-01-20T23:56:48.228Z,21.10
2019-01-20T23:59:17.776Z,21.20
